Latest Weather Observations for Gold Coast Seaway

IDQ60901

Issued at 10:51 am EST Saturday 22 July 2017 (issued every 10 minutes, with the page automatically refreshed every 10 minutes)

About weather observations | Map of Brisbane area stations | Latest observations for Brisbane area | Other Formats
Station Details ID: 040764 Name: GOLD COAST SEAWAY Lat: -27.94 Lon: 153.43 Height: 2.98 m
Data from the previous 72 hours. | See also: Recent months at Gold Coast Seaway
Date/Time
EST
Temp
°C
App
Temp
°C
Dew
Point
°C
Rel
Hum
%
Delta-T
°C
Wind Press
QNH
hPa
Press
MSL
hPa
Rain since
9am
mm
Dir  Spd
km/h
Gust
km/h
Spd
kts
Gust
kts
22/10:30am 19.0 15.0 5.1 40 6.7 S 15 20 8 11 1023.3 1023.3 0.0
22/10:00am 18.1 16.0 6.6 47 5.7 S 7 11 4 6 1023.6 1023.6 0.0
22/09:30am 16.1 13.4 5.7 50 5.0 NW 9 11 5 6 1023.8 1023.8 0.0
22/09:00am 14.3 11.6 7.4 63 3.4 WNW 11 13 6 7 1023.8 1023.8 0.0
22/08:30am 13.5 11.3 7.9 69 2.8 NW 9 11 5 6 1023.3 1023.3 0.0
22/08:00am 12.4 10.0 6.9 69 2.6 WNW 9 11 5 6 1022.9 1022.9 0.0
22/07:30am 11.2 9.1 8.2 82 1.5 WNW 9 11 5 6 1022.7 1022.7 0.0
22/07:00am 8.4 6.0 7.2 92 0.6 WNW 9 11 5 6 1022.5 1022.5 0.0
22/06:30am 7.4 5.1 5.7 89 0.8 WNW 7 9 4 5 1022.2 1022.2 0.0
22/06:00am 7.5 5.0 4.8 83 1.2 W 7 9 4 5 1021.6 1021.6 0.0
22/05:30am 8.4 6.0 5.2 80 1.4 W 7 9 4 5 1021.3 1021.3 0.0
22/05:00am 9.9 7.0 6.4 79 1.6 WNW 11 13 6 7 1021.1 1021.1 0.0
22/04:30am 9.7 7.2 6.6 81 1.4 W 9 11 5 6 1020.9 1020.9 0.0
22/04:00am 10.2 7.3 6.4 77 1.8 WNW 11 13 6 7 1021.0 1021.0 0.0
22/03:30am 10.2 7.3 6.5 78 1.7 W 11 11 6 6 1021.0 1021.0 0.0
22/03:00am 10.0 7.0 5.8 75 1.9 SW 11 11 6 6 1021.0 1021.0 0.0
22/02:30am 10.3 7.2 5.5 72 2.2 W 11 13 6 7 1020.8 1020.8 0.0
22/02:00am 10.4 7.7 5.6 72 2.2 WSW 9 11 5 6 1020.8 1020.8 0.0
22/01:30am 10.7 7.6 5.5 70 2.4 SW 11 13 6 7 1020.9 1020.9 0.0
22/01:00am 10.6 7.4 4.9 68 2.6 SW 11 13 6 7 1021.1 1021.1 0.0
22/12:30am 11.3 8.3 4.1 61 3.2 WSW 9 11 5 6 1021.2 1021.2 0.0
22/12:00am 10.7 7.2 3.3 60 3.2 W 11 13 6 7 1021.4 1021.4 0.0
 
Date/Time
EST
Temp
°C
App
Temp
°C
Dew
Point
°C
Rel
Hum
%
Delta-T
°C
Wind Press
QNH
hPa
Press
MSL
hPa
Rain since
9am
mm
Dir  Spd
km/h
Gust
km/h
Spd
kts
Gust
kts
21/11:30pm 11.4 7.5 3.2 57 3.6 WSW 13 13 7 7 1021.6 1021.6 0.0
21/11:00pm 11.5 8.1 3.8 59 3.4 WSW 11 15 6 8 1021.6 1021.6 0.0
21/10:30pm 11.5 7.5 3.0 56 3.7 WSW 13 15 7 8 1021.8 1021.8 0.0
21/10:00pm 11.5 8.1 3.8 59 3.4 WSW 11 13 6 7 1021.9 1021.9 0.0
21/09:30pm 11.9 8.4 3.7 57 3.6 WSW 11 13 6 7 1021.8 1021.8 0.0
21/09:00pm 11.4 7.2 1.4 50 4.2 SSW 13 15 7 8 1021.6 1021.6 0.0
21/08:30pm 12.7 7.3 1.1 45 4.9 S 19 22 10 12 1021.4 1021.4 0.0
21/08:00pm 14.2 7.7 2.8 46 5.1 SSE 26 30 14 16 1020.9 1020.9 0.0
21/07:30pm 14.4 8.4 3.2 47 5.0 SSE 24 32 13 17 1020.7 1020.7 0.0
21/07:00pm 14.7 7.5 3.2 46 5.2 SSE 30 33 16 18 1020.3 1020.3 0.0
21/06:30pm 15.3 7.7 3.8 46 5.3 SSE 33 41 18 22 1019.9 1019.9 0.0
21/06:00pm 15.6 7.5 3.4 44 5.5 SSE 35 41 19 22 1019.4 1019.4 0.0
21/05:30pm 15.8 8.3 4.2 46 5.4 SSE 33 39 18 21 1019.0 1019.0 0.0
21/05:00pm 16.2 9.0 5.2 48 5.2 SE 32 39 17 21 1018.5 1018.5 0.0
21/04:30pm 16.9 9.4 6.1 49 5.3 SE 35 43 19 23 1018.0 1018.0 0.0
21/04:00pm 17.1 9.5 6.0 48 5.4 SE 35 41 19 22 1017.7 1017.7 0.0
21/03:30pm 18.0 11.5 6.5 47 5.7 SE 30 35 16 19 1017.7 1017.7 0.0
21/03:00pm 17.9 12.4 5.8 45 5.9 SE 24 30 13 16 1017.6 1017.6 0.0
21/02:30pm 18.4 13.2 5.3 42 6.4 SE 22 30 12 16 1017.5 1017.5 0.0
21/02:00pm 18.6 14.1 4.4 39 6.8 ESE 17 22 9 12 1017.5 1017.5 0.0
21/01:30pm 18.8 14.8 2.6 34 7.5 ESE 13 17 7 9 1017.4 1017.4 0.0
21/01:00pm 18.5 14.7 1.5 32 7.6 SE 11 15 6 8 1017.5 1017.5 0.0
21/12:30pm 18.7 15.0 2.5 34 7.4 ESE 11 13 6 7 1017.9 1017.9 0.0
21/12:00pm 18.3 14.6 2.2 34 7.3 ESE 11 13 6 7 1018.4 1018.4 0.0
21/11:30am 18.0 14.2 1.9 34 7.3 ESE 11 17 6 9 1018.8 1018.8 0.0
21/11:00am 17.7 14.1 0.4 31 7.5 ESE 9 17 5 9 1019.0 1019.0 0.0
21/10:30am 17.0 13.8 0.6 33 7.1 SE 7 9 4 5 1019.2 1019.2 0.0
21/10:00am 16.8 13.6 0.9 34 6.9 SE 7 11 4 6 1019.3 1019.3 0.0
21/09:30am 15.2 11.9 2.4 42 5.7 NW 9 11 5 6 1019.3 1019.3 0.0
21/09:00am 14.3 11.0 2.5 45 5.2 NW 9 11 5 6 1019.1 1019.1 0.0
21/08:30am 12.5 8.8 2.1 49 4.5 W 11 13 6 7 1018.5 1018.5 0.0
21/08:00am 11.5 7.9 2.8 55 3.8 W 11 13 6 7 1018.1 1018.1 0.0
21/07:30am 10.5 6.8 2.1 56 3.6 W 11 13 6 7 1017.7 1017.7 0.0
21/07:00am 10.0 5.9 2.1 58 3.3 WNW 13 13 7 7 1017.4 1017.4 0.0
21/06:30am 9.5 6.2 2.4 61 3.0 NNW 9 11 5 6 1017.2 1017.2 0.0
21/06:00am 9.5 5.8 2.1 60 3.1 NW 11 13 6 7 1016.9 1016.9 0.0
21/05:30am 10.2 6.3 1.3 54 3.7 WSW 11 13 6 7 1016.3 1016.3 0.0
21/05:00am 9.5 5.8 2.1 60 3.1 SW 11 13 6 7 1015.7 1015.7 0.0
21/04:30am 7.3 4.1 0.5 62 2.7 WSW 7 11 4 6 1015.6 1015.6 0.0
21/04:00am 9.3 5.3 0.7 55 3.5 W 11 13 6 7 1015.5 1015.5 0.0
21/03:30am 11.1 7.6 1.1 50 4.2 SW 9 13 5 7 1015.5 1015.5 0.0
21/03:00am 9.9 6.4 1.0 54 3.7 WSW 9 11 5 6 1015.1 1015.1 0.0
21/02:30am 11.9 8.2 2.1 51 4.2 WSW 11 13 6 7 1015.1 1015.1 0.0
21/02:00am 11.4 7.8 2.7 55 3.8 W 11 13 6 7 1015.2 1015.2 0.0
21/01:30am 11.2 7.6 0.9 49 4.3 NW 9 11 5 6 1015.0 1015.0 0.0
21/01:00am 13.8 9.9 1.1 42 5.4 W 11 17 6 9 1015.0 1015.0 0.0
21/12:30am 14.4 9.8 1.3 41 5.7 WSW 15 26 8 14 1014.8 1014.8 0.0
21/12:00am 14.4 8.8 1.3 41 5.6 W 20 30 11 16 1015.0 1015.0 0.0
 
Date/Time
EST
Temp
°C
App
Temp
°C
Dew
Point
°C
Rel
Hum
%
Delta-T
°C
Wind Press
QNH
hPa
Press
MSL
hPa
Rain since
9am
mm
Dir  Spd
km/h
Gust
km/h
Spd
kts
Gust
kts
20/11:30pm 14.9 9.0 1.4 40 5.9 W 22 30 12 16 1015.1 1015.1 0.0
20/11:00pm 15.5 8.4 1.3 38 6.2 W 28 37 15 20 1015.1 1015.1 0.0
20/10:30pm 15.1 9.2 1.6 40 5.9 W 22 30 12 16 1015.4 1015.4 0.0
20/10:00pm 15.4 8.4 1.9 40 5.9 WNW 28 33 15 18 1015.2 1015.2 0.0
20/09:30pm 15.3 10.1 3.5 45 5.4 WNW 20 28 11 15 1015.5 1015.5 0.0
20/09:00pm 15.7 11.0 3.2 43 5.7 WNW 17 26 9 14 1015.1 1015.1 0.0
20/08:30pm 16.1 10.3 4.2 45 5.5 WNW 24 28 13 15 1014.9 1014.9 0.0
20/08:00pm 16.8 12.1 3.1 40 6.3 WNW 17 22 9 12 1014.7 1014.7 0.0
20/07:30pm 17.0 12.7 3.3 40 6.3 NW 15 24 8 13 1014.6 1014.6 0.0
20/07:00pm 15.9 12.5 5.8 51 4.9 N 13 15 7 8 1014.4 1014.4 0.0
20/06:30pm 16.3 13.2 5.6 49 5.1 N 11 15 6 8 1014.1 1014.1 0.0
20/06:00pm 17.7 14.4 4.3 41 6.3 NNW 11 17 6 9 1013.8 1013.8 0.0
20/05:30pm 18.3 14.3 3.0 36 7.1 NW 13 17 7 9 1013.7 1013.7 0.0
20/05:00pm 19.3 14.5 2.6 33 7.7 WNW 17 26 9 14 1013.4 1013.4 0.0
20/04:30pm 20.3 15.5 2.6 31 8.2 WNW 17 28 9 15 1013.3 1013.3 0.0
20/04:00pm 20.5 13.6 2.3 30 8.4 WNW 28 33 15 18 1013.0 1013.0 0.0
20/03:30pm 21.0 15.4 3.2 31 8.4 NW 22 30 12 16 1013.2 1013.2 0.0
20/03:00pm 20.8 14.9 4.0 33 8.1 NW 24 30 13 16 1013.2 1013.2 0.0
20/02:30pm 20.7 15.3 4.7 35 7.8 NW 22 28 12 15 1013.4 1013.4 0.0
20/02:00pm 20.0 15.2 4.5 36 7.5 NW 19 28 10 15 1013.6 1013.6 0.0
20/01:30pm 19.7 15.2 4.2 36 7.4 NW 17 26 9 14 1014.0 1014.0 0.0
20/01:00pm 19.2 12.0 3.0 34 7.5 W 30 37 16 20 1014.3 1014.3 0.0
20/12:30pm 20.0 15.5 4.1 35 7.6 NW 17 22 9 12 1014.4 1014.4 0.0
20/12:00pm 19.6 15.1 4.1 36 7.4 NW 17 26 9 14 1014.7 1014.7 0.0
20/11:30am 19.0 14.9 4.4 38 7.0 NW 15 19 8 10 1015.2 1015.2 0.0
20/11:00am 18.4 14.0 2.7 35 7.2 WNW 15 19 8 10 1015.7 1015.7 0.0
20/10:30am 17.6 13.0 3.5 39 6.6 W 17 24 9 13 1016.2 1016.2 0.0
20/10:00am 17.1 11.9 3.8 41 6.2 W 20 26 11 14 1016.7 1016.7 0.0
20/09:30am 17.0 12.1 4.3 43 6.0 W 19 22 10 12 1016.8 1016.8 0.0
20/09:00am 15.9 10.9 3.7 44 5.6 W 19 24 10 13 1016.6 1016.6 0.0
20/08:30am 15.0 10.0 3.8 47 5.1 W 19 22 10 12 1016.2 1016.2 0.0
20/08:00am 14.0 9.4 3.5 49 4.7 W 17 22 9 12 1016.1 1016.1 0.0
20/07:30am 13.2 7.6 3.3 51 4.4 W 22 28 12 15 1015.9 1015.9 0.0
20/07:00am 12.7 6.3 3.4 53 4.1 W 26 32 14 17 1015.8 1015.8 0.0
20/06:30am 12.4 6.0 3.4 54 4.0 W 26 32 14 17 1015.6 1015.6 0.0
20/06:00am 12.4 6.4 3.4 54 4.0 W 24 30 13 16 1015.1 1015.1 0.0
20/05:30am 12.5 6.4 2.9 52 4.2 W 24 30 13 16 1014.7 1014.7 0.0
20/05:00am 12.1 6.4 3.1 54 4.0 W 22 28 12 15 1014.0 1014.0 0.0
20/04:30am 12.4 7.3 3.1 53 4.1 W 19 24 10 13 1013.5 1013.5 0.0
20/04:00am 12.6 7.6 3.6 54 4.0 WNW 19 22 10 12 1013.5 1013.5 0.0
20/03:30am 12.4 7.4 3.4 54 4.0 W 19 24 10 13 1013.1 1013.1 0.0
20/03:00am 12.5 8.7 3.7 55 3.9 W 13 19 7 10 1012.7 1012.7 0.0
20/02:30am 12.8 8.9 3.2 52 4.3 W 13 17 7 9 1012.9 1012.9 0.0
20/02:00am 13.3 8.3 3.4 51 4.4 W 19 26 10 14 1012.7 1012.7 0.0
20/01:30am 13.5 8.8 3.3 50 4.6 WSW 17 26 9 14 1012.9 1012.9 0.0
20/01:00am 13.8 9.1 3.3 49 4.7 W 17 24 9 13 1013.0 1013.0 0.0
20/12:30am 13.9 7.5 3.1 48 4.8 W 26 32 14 17 1012.6 1012.6 0.0
20/12:00am 14.2 8.9 2.8 46 5.1 WSW 20 28 11 15 1012.8 1012.8 0.0
 
Date/Time
EST
Temp
°C
App
Temp
°C
Dew
Point
°C
Rel
Hum
%
Delta-T
°C
Wind Press
QNH
hPa
Press
MSL
hPa
Rain since
9am
mm
Dir  Spd
km/h
Gust
km/h
Spd
kts
Gust
kts
19/11:30pm 14.5 8.8 2.7 45 5.3 W 22 35 12 19 1013.0 1013.0 0.0
19/11:00pm 14.5 9.3 2.4 44 5.4 WSW 19 32 10 17 1013.0 1013.0 0.0
19/10:30pm 14.9 9.1 2.1 42 5.6 WSW 22 35 12 19 1013.1 1013.1 0.0
19/10:00pm 14.8 9.4 2.4 43 5.5 WSW 20 33 11 18 1013.1 1013.1 0.0
19/09:30pm 14.7 9.5 2.3 43 5.5 SW 19 35 10 19 1013.2 1013.2 0.0
19/09:00pm 15.0 9.7 1.9 41 5.8 WSW 19 37 10 20 1012.9 1012.9 0.0
19/08:30pm 15.4 9.2 1.9 40 6.0 WSW 24 44 13 24 1012.4 1012.4 0.0
19/08:18pm 15.6 8.2 2.1 40 6.0 WSW 30 48 16 26 1012.2 1012.2 0.0
19/08:00pm 15.7 9.1 1.8 39 6.1 WSW 26 41 14 22 1011.9 1011.9 0.0
19/07:30pm 15.7 7.9 1.8 39 6.1 W 32 41 17 22 1011.5 1011.5 0.0
19/07:15pm 16.0 9.0 2.1 39 6.2 WSW 28 46 15 25 1011.5 1011.5 0.0
19/07:00pm 16.1 9.8 1.4 37 6.5 WSW 24 46 13 25 1011.5 1011.5 0.0
19/06:30pm 16.2 10.8 1.5 37 6.5 SW 19 32 10 17 1011.3 1011.3 0.0
19/06:00pm 16.6 8.7 1.1 35 6.8 W 32 50 17 27 1010.2 1010.2 0.0
19/05:36pm 16.6 9.5 1.1 35 6.8 W 28 46 15 25 1009.9 1009.9 0.0
19/05:30pm 16.7 9.5 0.8 34 6.9 W 28 39 15 21 1009.7 1009.7 0.0
19/05:00pm 17.0 10.2 1.0 34 7.0 W 26 35 14 19 1009.6 1009.6 0.0
19/04:37pm 17.6 9.6 0.7 32 7.4 W 32 52 17 28 1009.2 1009.2 0.0
19/04:30pm 17.8 10.7 1.3 33 7.3 W 28 41 15 22 1009.1 1009.1 0.0
19/04:00pm 18.4 10.9 1.0 31 7.7 W 30 48 16 26 1009.0 1009.0 0.0
19/03:40pm 18.6 9.8 1.2 31 7.8 W 37 57 20 31 1008.7 1008.7 0.0
19/03:30pm 18.6 10.1 0.7 30 7.9 W 35 50 19 27 1008.7 1008.7 0.0
19/03:00pm 18.5 9.9 0.2 29 8.0 W 35 56 19 30 1008.8 1008.8 0.0
19/02:30pm 18.9 10.0 0.5 29 8.1 WSW 37 57 20 31 1008.5 1008.5 0.0
19/02:13pm 19.2 10.3 0.8 29 8.2 W 37 56 20 30 1008.4 1008.4 0.0
19/02:00pm 19.4 9.3 1.4 30 8.2 WNW 44 61 24 33 1008.2 1008.2 0.0
19/01:30pm 19.0 8.4 0.6 29 8.2 WNW 46 59 25 32 1007.7 1007.7 0.0
19/01:00pm 18.6 7.5 0.2 29 8.1 WNW 48 65 26 35 1008.0 1008.0 0.0
19/12:39pm 19.3 8.9 1.8 31 8.0 WNW 46 67 25 36 1008.4 1008.4 0.0
19/12:30pm 18.8 9.2 0.9 30 8.0 W 41 54 22 29 1008.7 1008.7 0.0
19/12:01pm 18.4 9.2 1.0 31 7.7 W 39 57 21 31 1009.2 1009.2 0.0
19/12:00pm 18.2 8.5 0.4 30 7.8 W 41 57 22 31 1009.2 1009.2 0.0
19/11:34am 18.3 6.9 0.4 30 7.8 WNW 50 69 27 37 1009.4 1009.4 0.0
19/11:30am 18.0 6.6 0.6 31 7.6 WNW 50 67 27 36 1009.4 1009.4 0.0
19/11:13am 17.9 6.1 0.6 31 7.6 WNW 52 70 28 38 1009.6 1009.6 0.0
19/11:00am 18.0 7.0 0.6 31 7.7 WNW 48 61 26 33 1010.0 1010.0 0.0

Latest Capital City Observations: Canberra | Sydney | Melbourne | Brisbane | Adelaide | Perth | Hobart | Darwin

Other Formats:

Comma delimited format used in spreadsheet applications
http://www.bom.gov.au/fwo/IDQ60901/IDQ60901.94580.axf

JavaScript Object Notation format (JSON) in row-major order
http://www.bom.gov.au/fwo/IDQ60901/IDQ60901.94580.json